ADDS METAR Data INFO
IDs: Format: Raw Decoded Include TAF

Data at: 1812 UTC 18 Feb 2018

KIFP 181755Z 22008KT 10SM CLR 16/M02 A2989 RMK AO2
KIFP 181735Z 22006KT 10SM CLR 15/M02 A2990 RMK AO2
KIFP 181715Z 22007KT 10SM CLR 14/M03 A2991 RMK AO2
KIFP 181655Z 17008KT 10SM CLR 14/M03 A2991 RMK AO2
KIFP 181635Z 18006KT 10SM CLR 13/M03 A2991 RMK AO2
KIFP 181615Z 00000KT 10SM CLR 10/M03 A2992 RMK AO2
KIFP 181555Z 00000KT 10SM CLR 10/M04 A2991 RMK AO2
KIFP 181535Z 00000KT 10SM CLR 09/M02 A2992 RMK AO2
KIFP 181515Z 00000KT 10SM CLR 08/M02 A2991 RMK AO2
KIFP 181455Z 13006KT 10SM CLR 09/M02 A2991 RMK AO2
KIFP 181435Z AUTO 13006KT 10SM CLR 08/M02 A2992 RMK AO2
KIFP 181415Z AUTO 14003KT 10SM CLR 08/M03 A2992 RMK AO2
KIFP 181355Z AUTO 00000KT 10SM CLR 08/M03 A2992 RMK AO2
KIFP 181335Z AUTO 00000KT 10SM CLR 09/M03 A2993 RMK AO2
KIFP 181315Z AUTO 00000KT 10SM CLR 09/M03 A2993 RMK AO2
KIFP 181255Z AUTO 00000KT 10SM CLR 10/M03 A2993 RMK AO2
KIFP 181235Z AUTO 00000KT 10SM CLR 10/M03 A2993 RMK AO2
KIFP 181215Z AUTO 00000KT 10SM CLR 10/M04 A2993 RMK AO2
KIFP 181155Z AUTO 11006KT 10SM CLR 09/M04 A2993 RMK AO2
KIFP 181135Z AUTO 00000KT 10SM CLR 09/M04 A2994 RMK AO2
KIFP 181115Z AUTO 12004KT 10SM CLR 10/M04 A2995 RMK AO2
KIFP 181055Z AUTO 11005KT 10SM CLR 10/M05 A2995 RMK AO2
KIFP 181035Z AUTO 11004KT 10SM CLR 10/M05 A2996 RMK AO2
KIFP 181015Z AUTO 05005KT 10SM CLR 10/M03 A2996 RMK AO2
KIFP 180955Z AUTO 32003KT 10SM CLR 10/M04 A2996 RMK AO2
KIFP 180935Z AUTO 16005KT 10SM CLR 11/M05 A2996 RMK AO2
KIFP 180915Z AUTO 14004KT 10SM CLR 10/M05 A2997 RMK AO2
KIFP 180855Z AUTO 00000KT 10SM CLR 10/M05 A2997 RMK AO2
KIFP 180835Z AUTO 00000KT 10SM CLR 13/M05 A2998 RMK AO2
KIFP 180815Z AUTO 00000KT 10SM CLR 12/M05 A2997 RMK AO2
KIFP 180755Z AUTO 14004KT 10SM CLR 12/M05 A2998 RMK AO2
KIFP 180735Z AUTO 14004KT 10SM CLR 12/M05 A2998 RMK AO2
KIFP 180715Z AUTO 12003KT 10SM CLR 11/M05 A2998 RMK AO2
KIFP 180655Z AUTO 00000KT 10SM CLR 14/M06 A2998 RMK AO2
KIFP 180635Z AUTO 00000KT 10SM CLR 12/M06 A2998 RMK AO2
KIFP 180615Z AUTO 00000KT 10SM CLR 13/M06 A2999 RMK AO2
KIFP 180555Z AUTO 00000KT 10SM CLR 14/M06 A2999 RMK AO2
KIFP 180535Z AUTO 00000KT 10SM CLR 15/M06 A3000 RMK AO2
KIFP 180515Z AUTO 00000KT 10SM CLR 16/M06 A3000 RMK AO2
KIFP 180455Z AUTO VRB03KT 10SM CLR 16/M06 A3001 RMK AO2
KIFP 180435Z AUTO 12006KT 10SM CLR 16/M06 A3001 RMK AO2
KIFP 180415Z AUTO 12007KT 10SM CLR 16/M06 A3002 RMK AO2
KIFP 180355Z AUTO 14007KT 10SM CLR 16/M06 A3002 RMK AO2
KIFP 180335Z AUTO 14005KT 10SM CLR 16/M07 A3003 RMK AO2
KIFP 180315Z AUTO 12004KT 10SM CLR 17/M07 A3003 RMK AO2
KIFP 180255Z AUTO 12005KT 10SM CLR 17/M08 A3003 RMK AO2
KIFP 180235Z AUTO 14004KT 10SM CLR 17/M10 A3003 RMK AO2
KIFP 180215Z AUTO 17005KT 10SM CLR 18/M10 A3003 RMK AO2
KIFP 180155Z AUTO 19003KT 10SM CLR 19/M11 A3003 RMK AO2
KIFP 180135Z AUTO 21003KT 10SM CLR 20/M11 A3003 RMK AO2
KIFP 180115Z AUTO 00000KT 10SM CLR 21/M11 A3003 RMK AO2
KIFP 180055Z 23003KT 10SM CLR 21/M11 A3003 RMK AO2
KIFP 180035Z 24003KT 10SM CLR 22/M11 A3004 RMK AO2
KIFP 180015Z 24004KT 10SM CLR 22/M12 A3004 RMK AO2
KIFP 172355Z 20005KT 10SM CLR 22/M12 A3005 RMK AO2
KIFP 172335Z 24005KT 10SM CLR 22/M12 A3005 RMK AO2
KIFP 172315Z 28004KT 10SM CLR 22/M11 A3006 RMK AO2
KIFP 172255Z 33003KT 10SM CLR 22/M11 A3006 RMK AO2
KIFP 172235Z 00000KT 10SM CLR 22/M10 A3007 RMK AO2
KIFP 172215Z 32006KT 10SM CLR 21/M10 A3008 RMK AO2
KIFP 172155Z 33008KT 10SM CLR 21/M10 A3009 RMK AO2
KIFP 172135Z 33009KT 10SM CLR 21/M09 A3010 RMK AO2
KIFP 172115Z 36009KT 330V030 10SM CLR 20/M09 A3011 RMK AO2
KIFP 172055Z 36012KT 10SM CLR 20/M09 A3012 RMK AO2
KIFP 172035Z 36010G17KT 10SM CLR 20/M06 A3014 RMK AO2
KIFP 172015Z 01014KT 10SM CLR 19/M06 A3014 RMK AO2
KIFP 171955Z 02016KT 10SM CLR 19/M07 A3015 RMK AO2
KIFP 171935Z 01015G21KT 10SM CLR 18/M06 A3017 RMK AO2
KIFP 171915Z 36015KT 10SM CLR 18/M05 A3018 RMK AO2
KIFP 171855Z 02013KT 10SM CLR 18/M05 A3019 RMK AO2
KIFP 171835Z 36013KT 10SM CLR 17/M06 A3020 RMK AO2
KIFP 171815Z 02015KT 10SM CLR 17/M06 A3020 RMK AO2
KIFP 171755Z 02013KT 10SM CLR 16/M05 A3021 RMK AO2
KIFP 171735Z 02011KT 10SM CLR 15/M05 A3021 RMK AO2
KIFP 171715Z 36012G18KT 10SM CLR 14/M05 A3021 RMK AO2
KIFP 171655Z 00000KT 10SM CLR 12/M05 A3022 RMK AO2
KIFP 171635Z 00000KT 10SM CLR 10/M05 A3022 RMK AO2
KIFP 171615Z 00000KT 10SM CLR 09/M05 A3022 RMK AO2
KIFP 171555Z 20003KT 10SM CLR 09/M05 A3021 RMK AO2
KIFP 171535Z 19004KT 10SM CLR 08/M05 A3021 RMK AO2
KIFP 171515Z 19004KT 10SM CLR 08/M05 A3020 RMK AO2
KIFP 171455Z AUTO 00000KT 10SM CLR 07/M05 A3019 RMK AO2
KIFP 171435Z AUTO 00000KT 10SM CLR 06/M05 A3018 RMK AO2
KIFP 171415Z AUTO 00000KT 10SM CLR 06/M05 A3018 RMK AO2
KIFP 171355Z AUTO 00000KT 10SM CLR 07/M05 A3017 RMK AO2
KIFP 171335Z AUTO 14003KT 10SM CLR 06/M06 A3017 RMK AO2
KIFP 171315Z AUTO 00000KT 10SM CLR 07/M05 A3017 RMK AO2
KIFP 171255Z AUTO 00000KT 10SM CLR 07/M06 A3016 RMK AO2
KIFP 171235Z AUTO 00000KT 10SM CLR 07/M06 A3016 RMK AO2
KIFP 171215Z AUTO 00000KT 10SM CLR 08/M06 A3016 RMK AO2
KIFP 171155Z AUTO 15005KT 10SM CLR 08/M06 A3016 RMK AO2
KIFP 171135Z AUTO 17004KT 10SM CLR 08/M06 A3016 RMK AO2
KIFP 171115Z AUTO 00000KT 10SM CLR 10/M05 A3016 RMK AO2
KIFP 171055Z AUTO 18004KT 10SM CLR 10/M05 A3017 RMK AO2
KIFP 171035Z AUTO 00000KT 10SM CLR 11/M05 A3017 RMK AO2
KIFP 171015Z AUTO 00000KT 10SM CLR 10/M08 A3017 RMK AO2
KIFP 170955Z AUTO 35005KT 10SM CLR 10/M07 A3017 RMK AO2
KIFP 170935Z AUTO 02005KT 10SM CLR 10/M06 A3017 RMK AO2
KIFP 170915Z AUTO 01007KT 10SM CLR 10/M03 A3017 RMK AO2
KIFP 170855Z AUTO 03005KT 10SM CLR 10/M04 A3017 RMK AO2
KIFP 170835Z AUTO 02003KT 10SM CLR 10/M01 A3017 RMK AO2
KIFP 170815Z AUTO 00000KT 10SM CLR 11/M03 A3016 RMK AO2
KIFP 170755Z AUTO 36003KT 10SM CLR 11/M03 A3016 RMK AO2
KIFP 170735Z AUTO 36006KT 10SM CLR 12/M03 A3016 RMK AO2
KIFP 170715Z AUTO 01007KT 10SM CLR 12/M04 A3015 RMK AO2
KIFP 170655Z AUTO 01008KT 10SM CLR 12/M03 A3015 RMK AO2
KIFP 170635Z AUTO 02004KT 10SM CLR 12/M03 A3015 RMK AO2
KIFP 170615Z AUTO 36003KT 10SM CLR 13/M07 A3015 RMK AO2